Sunday, June 17, 2018, 10:07 PM EDT
Back to Local

KMVY, Vineyard Haven Marthas Vin

Location: Vineyard Haven, MA, United States Lat: 41.4
Local Time: 10:07 PM EDT ( 2:07 GMT) Lon: -70.617
Time Zone: US/Eastern Elev: 68 ft

Show me the last for .
Show Coded

Time T Td Feel RH Dir Speed Gust Alt SLP Vis Weather Sky Remarks
2018-06-17 21:53 62 61 - 96 190° 7 - 30.10 30.09 10 CLR None
2018-06-17 20:53 64 60 - 86 200° 5 - 30.09 30.09 10 CLR None
2018-06-17 19:53 67 60 - 78 210° 9 - 30.09 30.09 10 CLR 6-hr Min Temp (8pm): 66.9°F
6-hr Max Temp (8pm): 80.1°F
2018-06-17 18:53 69 60 - 73 220° 10 - 30.10 30.10 10 CLR None
2018-06-17 17:53 70 60 - 70 200° 12 - 30.09 30.09 10 CLR None
2018-06-17 16:53 74 58 77 57 210° 9 - 30.10 30.09 10 CLR None
2018-06-17 15:53 76 58 78 53 200° 10 - 30.09 30.08 10 CLR None
2018-06-17 14:53 78 59 80 51 200° 10 - 30.08 30.07 10 CLR None
2018-06-17 13:53 80 61 81 52 170° 10 - 30.07 30.07 10 CLR 6-hr Min Temp (2pm): 73.0°F
6-hr Max Temp (2pm): 84.0°F
2018-06-17 12:53 82 60 83 47 160° 12 - 30.07 30.07 10 CLR None
2018-06-17 11:53 83 57 83 41 Variable 6 - 30.09 30.09 10 CLR None
2018-06-17 10:53 82 56 82 40 310° 7 - 30.09 30.09 10 CLR None
2018-06-17 09:53 81 58 81 45 Variable 5 - 30.07 30.07 10 CLR None
2018-06-17 08:53 77 60 79 55 - Calm - 30.06 30.05 10 CLR None
2018-06-17 07:53 73 58 77 59 330° 5 - 30.06 30.05 10 CLR 6-hr Min Temp (8am): 61.0°F
6-hr Max Temp (8am): 73.0°F
2018-06-17 06:53 66 56 - 69 290° 5 - 30.04 30.04 10 CLR None
2018-06-17 05:53 62 53 - 72 300° 5 - 30.03 30.03 10 CLR None
2018-06-17 04:53 66 51 - 58 280° 8 - 30.02 30.02 10 CLR None
2018-06-17 03:53 66 52 - 60 280° 9 - 30.01 30.01 10 CLR None
2018-06-17 02:53 63 55 - 75 280° 8 - 30.00 30.00 10 CLR None
2018-06-17 01:53 62 56 - 80 270° 6 - 30.01 30.00 10 CLR 6-hr Min Temp (2am): 62.1°F
6-hr Max Temp (2am): 68.0°F
2018-06-17 00:53 63 55 - 75 270° 7 - 30.01 30.01 10 CLR 24-hr Min Temp (1am): 55.9°F
24-hr Max Temp (1am): 80.1°F
2018-06-16 23:53 64 55 - 72 280° 7 - 30.02 30.01 10 CLR None
2018-06-16 22:53 66 53 - 63 270° 9 - 30.01 30.00 10 CLR None

Support USWX by starting your Amazon purchase here.